KRBL/RBL METAR and TAF weather

Enter ICAO airport designator
Station Type Date Time Source
KRBL METAR 2022/12/10 00:54 UTC NOAA

KRBL 100054Z AUTO 17008KT 10SM BKN055 OVC070 09/06 A3007 RMK AO2 SLP183 T00890056


Station Type Date Time Source
KRBL Decoded METAR 2022/12/10 00:54 UTC NOAA

RED BLUFF MUNICIPAL AIRPORT, CA, United States (KRBL) 40-09N 122-15W 104M
Dec 09, 2022 - 07:54 PM EST / 2022.12.10 0054 UTC
Wind: from the S (170 degrees) at 9 MPH (8 KT):0
Visibility: 10 mile(s):0
Sky conditions: overcast
Temperature: 48.0 F (8.9 C)
Dew Point: 42.1 F (5.6 C)
Relative Humidity: 79%
Pressure (altimeter): 30.07 in. Hg (1018 hPa)
ob: KRBL 100054Z AUTO 17008KT 10SM BKN055 OVC070 09/06 A3007 RMK AO2 SLP183 T00890056
cycle: 1

Station Type Date Time Source
KRBL TAF 2022/12/09 18:34 UTC NOAA

TAF KRBL 091732Z 0918/1018 VRB05KT P6SM OVC020
FM100400 18014G21KT 6SM -RA OVC035
FM101400 16025G35KT 4SM RA OVC015

Example: see airport list